createdAt,value
2019-04-26T00:02:03.158Z,8.30
2019-04-26T00:04:34.031Z,8.30
2019-04-26T00:07:04.846Z,8.30
2019-04-26T00:09:38.386Z,8.30
2019-04-26T00:12:26.146Z,8.30
2019-04-26T00:15:18.767Z,8.30
2019-04-26T00:17:52.869Z,8.30
2019-04-26T00:20:23.299Z,8.30
2019-04-26T00:22:55.055Z,8.30
2019-04-26T00:25:25.478Z,8.30
2019-04-26T00:27:55.983Z,8.30
2019-04-26T00:30:26.441Z,8.30
2019-04-26T00:32:56.930Z,8.30
2019-04-26T00:35:27.573Z,8.40
2019-04-26T00:37:58.138Z,8.50
2019-04-26T00:40:28.669Z,8.50
2019-04-26T00:43:00.599Z,8.50
2019-04-26T00:45:34.031Z,8.50
2019-04-26T00:48:05.522Z,8.50
2019-04-26T00:50:37.182Z,8.50
2019-04-26T00:53:09.638Z,8.40
2019-04-26T00:55:40.448Z,8.40
2019-04-26T00:58:11.414Z,8.40
2019-04-26T01:00:43.041Z,8.30
2019-04-26T01:03:15.210Z,8.20
2019-04-26T01:05:45.627Z,8.20
2019-04-26T01:08:17.029Z,8.10
2019-04-26T01:10:47.915Z,8.10
2019-04-26T01:13:18.349Z,8.00
2019-04-26T01:15:48.880Z,8.10
2019-04-26T01:18:20.129Z,8.20
2019-04-26T01:20:53.730Z,8.10
2019-04-26T01:23:27.251Z,8.20
2019-04-26T01:26:07.641Z,8.10
2019-04-26T01:28:45.903Z,8.10
2019-04-26T01:31:18.493Z,8.10
2019-04-26T01:33:49.621Z,8.00
2019-04-26T01:36:20.547Z,8.00
2019-04-26T01:38:53.815Z,7.90
2019-04-26T01:41:33.949Z,7.90
2019-04-26T01:44:24.630Z,7.80
2019-04-26T01:46:56.335Z,7.80
2019-04-26T01:49:26.886Z,7.80
2019-04-26T01:52:03.679Z,7.70
2019-04-26T01:54:39.833Z,7.70
2019-04-26T01:57:10.464Z,7.70
2019-04-26T01:59:45.750Z,7.80
2019-04-26T02:02:23.770Z,7.80
2019-04-26T02:04:57.283Z,7.90
2019-04-26T02:07:41.049Z,7.90
2019-04-26T02:10:15.205Z,8.00
2019-04-26T02:12:48.401Z,8.00
2019-04-26T02:15:23.010Z,8.00
2019-04-26T02:17:56.695Z,8.10
2019-04-26T02:20:52.519Z,8.10
2019-04-26T02:23:37.175Z,8.10
2019-04-26T02:26:26.646Z,8.10
2019-04-26T02:28:57.263Z,8.00
2019-04-26T02:31:31.464Z,8.00
2019-04-26T02:34:04.237Z,7.90
2019-04-26T02:36:55.162Z,7.90
2019-04-26T02:39:19.448Z,7.80
2019-04-26T02:41:53.173Z,7.90
2019-04-26T02:44:29.077Z,7.90
2019-04-26T02:47:22.896Z,8.00
2019-04-26T02:49:57.111Z,8.00
2019-04-26T02:52:45.460Z,8.00
2019-04-26T02:55:36.959Z,8.00
2019-04-26T02:58:05.780Z,8.00
2019-04-26T03:00:37.743Z,8.10
2019-04-26T03:03:10.576Z,8.10
2019-04-26T03:05:43.575Z,8.10
2019-04-26T03:08:23.536Z,8.20
2019-04-26T03:11:11.188Z,8.10
2019-04-26T03:13:59.841Z,8.20
2019-04-26T03:16:49.314Z,8.10
2019-04-26T03:19:36.240Z,8.00
2019-04-26T03:22:34.901Z,7.90
2019-04-26T03:25:22.243Z,7.80
2019-04-26T03:28:10.074Z,7.70
2019-04-26T03:30:54.738Z,7.70
2019-04-26T03:33:53.104Z,7.60
2019-04-26T03:37:01.333Z,7.60
2019-04-26T03:39:46.203Z,7.60
2019-04-26T03:42:35.075Z,7.50
2019-04-26T03:45:29.320Z,7.40
2019-04-26T03:48:08.992Z,7.40
2019-04-26T03:50:47.318Z,7.40
2019-04-26T03:53:27.045Z,7.40
2019-04-26T03:56:39.832Z,7.30
2019-04-26T03:59:59.033Z,7.30
2019-04-26T04:02:58.567Z,7.20
2019-04-26T04:05:40.117Z,7.20
2019-04-26T04:08:14.051Z,7.20
2019-04-26T04:18:47.629Z,7.20
2019-04-26T04:21:48.637Z,7.20
2019-04-26T04:24:29.723Z,7.20
2019-04-26T04:27:31.889Z,7.10
2019-04-26T04:30:33.852Z,7.10
2019-04-26T04:33:40.728Z,7.10
2019-04-26T04:36:26.594Z,7.00
2019-04-26T04:39:24.566Z,7.00
2019-04-26T04:42:25.597Z,7.00
2019-04-26T04:45:24.843Z,7.00
2019-04-26T04:48:27.019Z,7.00
2019-04-26T04:51:27.255Z,7.00
2019-04-26T04:54:19.421Z,6.90
2019-04-26T04:57:25.337Z,6.80
2019-04-26T05:00:45.736Z,6.80
2019-04-26T05:03:39.208Z,6.70
2019-04-26T05:06:47.767Z,6.70
2019-04-26T05:09:31.767Z,6.60
2019-04-26T05:12:20.117Z,6.60
2019-04-26T05:15:10.717Z,6.60
2019-04-26T05:18:11.120Z,6.70
2019-04-26T05:20:53.338Z,6.70
2019-04-26T05:23:55.186Z,6.70
2019-04-26T05:27:29.642Z,6.80
2019-04-26T05:31:15.322Z,6.80
2019-04-26T05:34:22.216Z,6.90
2019-04-26T05:37:33.497Z,7.00
2019-04-26T05:40:26.351Z,7.10
2019-04-26T05:43:39.281Z,7.20
2019-04-26T05:47:06.843Z,7.30
2019-04-26T05:50:37.276Z,7.40
2019-04-26T05:53:48.710Z,7.60
2019-04-26T05:56:42.745Z,7.70
2019-04-26T05:59:30.173Z,7.80
2019-04-26T06:02:59.682Z,7.90
2019-04-26T06:06:17.716Z,8.10
2019-04-26T06:09:48.060Z,8.30
2019-04-26T06:12:54.739Z,8.50
2019-04-26T06:15:52.775Z,8.50
2019-04-26T06:18:55.227Z,8.60
2019-04-26T06:22:00.044Z,8.80
2019-04-26T06:24:52.671Z,9.00
2019-04-26T06:27:56.258Z,9.10
2019-04-26T06:30:48.889Z,9.30
2019-04-26T06:33:35.122Z,9.30
2019-04-26T06:36:13.846Z,9.30
2019-04-26T06:39:12.231Z,9.30
2019-04-26T06:42:29.858Z,9.30
2019-04-26T06:45:28.956Z,9.30
2019-04-26T06:48:08.905Z,9.40
2019-04-26T06:50:46.704Z,9.50
2019-04-26T06:53:52.562Z,9.60
2019-04-26T06:57:26.629Z,9.80
2019-04-26T07:00:23.434Z,10.00
2019-04-26T07:03:24.268Z,10.80
2019-04-26T07:06:00.284Z,11.80
2019-04-26T07:08:43.042Z,12.60
2019-04-26T07:11:36.458Z,13.40
2019-04-26T07:14:20.862Z,13.40
2019-04-26T07:17:07.943Z,13.60
2019-04-26T07:20:29.817Z,14.30
2019-04-26T07:24:03.867Z,14.40
2019-04-26T07:27:05.588Z,14.70
2019-04-26T07:30:12.575Z,15.20
2019-04-26T07:33:22.690Z,15.50
2019-04-26T07:36:24.804Z,15.80
2019-04-26T07:39:23.394Z,16.60
2019-04-26T07:42:59.242Z,17.40
2019-04-26T07:45:54.506Z,17.90
2019-04-26T07:48:56.838Z,18.30
2019-04-26T07:52:06.323Z,18.50
2019-04-26T07:55:16.129Z,19.20
2019-04-26T07:58:09.291Z,18.60
2019-04-26T08:00:52.211Z,18.30
2019-04-26T08:03:39.286Z,18.00
2019-04-26T08:06:20.558Z,17.60
2019-04-26T08:08:59.946Z,18.20
2019-04-26T08:11:36.743Z,19.60
2019-04-26T08:14:39.562Z,20.50
2019-04-26T08:17:31.953Z,20.50
2019-04-26T08:20:16.641Z,20.80
2019-04-26T08:22:52.236Z,22.10
2019-04-26T08:25:25.247Z,23.30
2019-04-26T08:27:58.669Z,23.80
2019-04-26T08:30:31.861Z,23.50
2019-04-26T08:33:07.501Z,22.40
2019-04-26T08:35:38.698Z,21.30
2019-04-26T08:38:15.945Z,21.50
2019-04-26T08:40:43.420Z,22.00
2019-04-26T08:43:30.783Z,21.70
2019-04-26T08:46:28.315Z,20.60
2019-04-26T08:49:06.461Z,19.20
2019-04-26T08:51:38.478Z,18.30
2019-04-26T08:54:32.528Z,18.20
2019-04-26T08:57:11.849Z,17.90
2019-04-26T08:59:49.207Z,17.70
2019-04-26T09:02:54.279Z,17.50
2019-04-26T09:05:49.863Z,17.50
2019-04-26T09:08:21.467Z,17.10
2019-04-26T09:10:54.803Z,17.30
2019-04-26T09:13:29.142Z,17.60
2019-04-26T09:16:28.026Z,18.40
2019-04-26T09:18:59.679Z,19.00
2019-04-26T09:21:38.994Z,19.50
2019-04-26T09:24:25.118Z,20.30
2019-04-26T09:27:01.408Z,21.30
2019-04-26T09:29:39.209Z,21.70
2019-04-26T09:32:15.985Z,20.80
2019-04-26T09:34:47.011Z,19.30
2019-04-26T09:37:17.864Z,19.10
2019-04-26T09:39:48.487Z,19.10
2019-04-26T09:42:29.365Z,18.20
2019-04-26T09:45:07.473Z,17.60
2019-04-26T09:47:43.942Z,17.00
2019-04-26T09:50:39.562Z,17.40
2019-04-26T09:53:10.110Z,18.20
2019-04-26T09:55:40.582Z,18.10
2019-04-26T09:58:11.043Z,20.20
2019-04-26T10:00:44.096Z,22.30
2019-04-26T10:03:14.765Z,24.10
2019-04-26T10:05:45.195Z,25.20
2019-04-26T10:08:15.671Z,25.90
2019-04-26T10:10:46.251Z,27.30
2019-04-26T10:13:44.737Z,28.10
2019-04-26T10:16:33.581Z,28.40
2019-04-26T10:19:12.010Z,28.60
2019-04-26T10:21:42.621Z,27.10
2019-04-26T10:24:13.072Z,27.90
2019-04-26T10:26:43.486Z,27.60
2019-04-26T10:29:13.923Z,26.00
2019-04-26T10:31:47.539Z,25.20
2019-04-26T10:34:16.435Z,24.20
2019-04-26T10:36:46.841Z,24.00
2019-04-26T10:39:19.263Z,22.50
2019-04-26T10:41:50.822Z,21.30
2019-04-26T10:44:22.532Z,19.80
2019-04-26T10:46:55.749Z,18.30
2019-04-26T10:49:48.851Z,17.30
2019-04-26T10:52:42.349Z,17.20
2019-04-26T10:55:35.000Z,17.30
2019-04-26T10:58:15.052Z,17.90
2019-04-26T11:00:48.477Z,18.70
2019-04-26T11:03:18.671Z,20.90
2019-04-26T11:05:53.491Z,23.20
2019-04-26T11:08:21.658Z,24.90
2019-04-26T11:10:52.422Z,22.30
2019-04-26T11:13:22.834Z,20.50
2019-04-26T11:15:53.258Z,18.90
2019-04-26T11:18:27.592Z,17.90
2019-04-26T11:20:55.959Z,17.60
2019-04-26T11:23:26.475Z,18.40
2019-04-26T11:25:57.891Z,20.10
2019-04-26T11:28:28.975Z,23.20
2019-04-26T11:30:59.509Z,25.10
2019-04-26T11:33:30.035Z,27.70
2019-04-26T11:36:03.331Z,30.20
2019-04-26T11:38:32.928Z,28.80
2019-04-26T11:41:06.226Z,26.70
2019-04-26T11:43:35.635Z,24.00
2019-04-26T11:46:06.166Z,20.90
2019-04-26T11:48:36.589Z,18.70
2019-04-26T11:51:07.022Z,17.30
2019-04-26T11:53:40.444Z,16.60
2019-04-26T11:56:09.557Z,16.20
2019-04-26T11:58:40.106Z,15.80
2019-04-26T12:01:12.213Z,15.70
2019-04-26T12:03:48.433Z,15.30
2019-04-26T12:06:36.922Z,15.30
2019-04-26T12:09:19.627Z,15.30
2019-04-26T12:12:03.710Z,15.40
2019-04-26T12:14:22.131Z,15.30
2019-04-26T12:16:58.894Z,15.20
2019-04-26T12:19:25.646Z,15.20
2019-04-26T12:21:56.076Z,15.40
2019-04-26T12:24:29.989Z,15.40
2019-04-26T12:26:59.935Z,15.80
2019-04-26T12:29:30.739Z,16.40
2019-04-26T12:32:01.444Z,17.00
2019-04-26T12:34:31.998Z,17.90
2019-04-26T12:37:02.423Z,17.90
2019-04-26T12:39:36.760Z,17.40
2019-04-26T12:42:08.194Z,16.90
2019-04-26T12:44:46.917Z,16.30
2019-04-26T12:47:21.764Z,15.70
2019-04-26T12:49:54.582Z,15.50
2019-04-26T12:52:24.503Z,15.30
2019-04-26T12:54:57.575Z,15.40
2019-04-26T12:57:27.110Z,16.50
2019-04-26T13:00:01.820Z,16.90
2019-04-26T13:02:29.961Z,16.70
2019-04-26T13:05:00.365Z,16.60
2019-04-26T13:07:31.004Z,16.60
2019-04-26T13:10:36.794Z,16.70
2019-04-26T13:13:18.199Z,16.90
2019-04-26T13:16:08.120Z,16.00
2019-04-26T13:18:41.118Z,15.20
2019-04-26T13:21:10.716Z,14.80
2019-04-26T13:23:41.146Z,14.70
2019-04-26T13:26:11.569Z,14.70
2019-04-26T13:28:42.165Z,14.80
2019-04-26T13:31:12.635Z,14.90
2019-04-26T13:33:42.911Z,15.10
2019-04-26T13:36:13.482Z,15.20
2019-04-26T13:38:45.188Z,15.20
2019-04-26T13:41:15.788Z,15.60
2019-04-26T13:43:46.199Z,16.60
2019-04-26T13:46:41.815Z,18.60
2019-04-26T13:49:30.061Z,20.40
2019-04-26T13:52:00.539Z,21.80
2019-04-26T13:54:31.123Z,21.70
2019-04-26T13:57:01.596Z,21.00
2019-04-26T13:59:32.821Z,19.40
2019-04-26T14:02:11.460Z,18.40
2019-04-26T14:04:37.252Z,17.40
2019-04-26T14:07:07.770Z,16.90
2019-04-26T14:09:39.516Z,16.40
2019-04-26T14:12:18.393Z,16.00
2019-04-26T14:14:41.880Z,16.00
2019-04-26T14:17:12.539Z,15.70
2019-04-26T14:19:45.301Z,15.70
2019-04-26T14:22:17.081Z,15.60
2019-04-26T14:25:11.256Z,15.60
2019-04-26T14:27:51.200Z,15.60
2019-04-26T14:30:22.348Z,15.70
2019-04-26T14:32:53.247Z,16.10
2019-04-26T14:35:24.853Z,16.50
2019-04-26T14:38:27.110Z,17.40
2019-04-26T14:40:47.448Z,18.10
2019-04-26T14:43:18.412Z,18.00
2019-04-26T14:45:55.974Z,17.70
2019-04-26T14:48:35.119Z,17.30
2019-04-26T14:51:07.226Z,17.10
2019-04-26T14:53:26.613Z,16.30
2019-04-26T14:55:57.122Z,15.90
2019-04-26T14:58:30.089Z,15.70
2019-04-26T15:01:03.141Z,15.80
2019-04-26T15:03:38.470Z,15.90
2019-04-26T15:06:33.670Z,16.60
2019-04-26T15:09:16.829Z,18.60
2019-04-26T15:11:37.164Z,19.50
2019-04-26T15:14:07.611Z,18.80
2019-04-26T15:16:41.489Z,18.00
2019-04-26T15:19:12.594Z,17.00
2019-04-26T15:21:42.372Z,16.40
2019-04-26T15:24:12.908Z,16.30
2019-04-26T15:26:43.329Z,16.00
2019-04-26T15:29:14.781Z,15.90
2019-04-26T15:31:45.256Z,15.60
2019-04-26T15:34:19.267Z,15.40
2019-04-26T15:36:49.256Z,15.40
2019-04-26T15:39:30.067Z,15.30
2019-04-26T15:42:18.556Z,15.50
2019-04-26T15:45:03.510Z,15.60
2019-04-26T15:48:05.389Z,15.70
2019-04-26T15:50:50.238Z,16.00
2019-04-26T15:53:14.770Z,16.30
2019-04-26T15:55:45.463Z,16.10
2019-04-26T15:58:15.905Z,16.00
2019-04-26T16:00:46.638Z,15.80
2019-04-26T16:03:17.111Z,15.90
2019-04-26T16:05:47.594Z,16.00
2019-04-26T16:08:18.024Z,15.90
2019-04-26T16:10:49.679Z,15.80
2019-04-26T16:13:24.120Z,15.80
2019-04-26T16:15:54.729Z,15.90
2019-04-26T16:18:25.157Z,15.90
2019-04-26T16:20:56.912Z,15.80
2019-04-26T16:23:38.358Z,15.60
2019-04-26T16:25:59.616Z,15.50
2019-04-26T16:28:48.943Z,15.40
2019-04-26T16:31:47.672Z,15.60
2019-04-26T16:34:19.181Z,15.90
2019-04-26T16:36:49.642Z,15.80
2019-04-26T16:39:20.083Z,15.50
2019-04-26T16:41:51.882Z,15.40
2019-04-26T16:44:29.376Z,15.20
2019-04-26T16:47:01.427Z,15.10
2019-04-26T16:49:28.434Z,14.80
2019-04-26T16:52:03.095Z,14.70
2019-04-26T16:54:30.935Z,14.70
2019-04-26T16:57:06.803Z,14.60
2019-04-26T16:59:34.452Z,14.60
2019-04-26T17:02:05.176Z,14.50
2019-04-26T17:04:36.399Z,14.40
2019-04-26T17:07:06.965Z,14.20
2019-04-26T17:09:55.765Z,14.00
2019-04-26T17:12:10.460Z,13.80
2019-04-26T17:14:47.675Z,13.60
2019-04-26T17:17:14.222Z,13.50
2019-04-26T17:19:44.735Z,13.40
2019-04-26T17:22:55.802Z,13.10
2019-04-26T17:25:38.424Z,13.00
2019-04-26T17:28:08.849Z,13.00
2019-04-26T17:30:42.495Z,12.90
2019-04-26T17:33:13.022Z,12.80
2019-04-26T17:35:44.029Z,12.70
2019-04-26T17:38:14.449Z,12.80
2019-04-26T17:41:06.443Z,12.70
2019-04-26T17:43:42.210Z,12.50
2019-04-26T17:46:14.625Z,12.50
2019-04-26T17:48:49.146Z,12.60
2019-04-26T17:51:19.178Z,12.60
2019-04-26T17:53:58.813Z,12.50
2019-04-26T17:56:26.118Z,12.40
2019-04-26T17:59:09.119Z,12.30
2019-04-26T18:01:45.366Z,12.30
2019-04-26T18:04:11.967Z,12.30
2019-04-26T18:06:47.370Z,12.20
2019-04-26T18:09:38.172Z,12.20
2019-04-26T18:11:46.945Z,12.10
2019-04-26T18:14:21.650Z,12.00
2019-04-26T18:16:57.134Z,11.90
2019-04-26T18:19:47.766Z,11.90
2019-04-26T18:22:40.355Z,11.90
2019-04-26T18:25:12.648Z,11.90
2019-04-26T18:27:43.511Z,11.80
2019-04-26T18:30:14.609Z,11.80
2019-04-26T18:32:47.756Z,11.80
2019-04-26T18:35:17.407Z,11.80
2019-04-26T18:37:47.891Z,11.80
2019-04-26T18:40:20.565Z,11.70
2019-04-26T18:42:50.618Z,11.60
2019-04-26T18:45:25.577Z,11.50
2019-04-26T18:47:54.801Z,11.40
2019-04-26T18:50:46.030Z,11.50
2019-04-26T18:53:36.627Z,11.40
2019-04-26T18:56:06.595Z,11.40
2019-04-26T18:58:38.025Z,11.40
2019-04-26T19:01:10.521Z,11.30
2019-04-26T19:03:41.048Z,11.20
2019-04-26T19:06:11.474Z,11.20
2019-04-26T19:08:47.674Z,11.10
2019-04-26T19:11:14.283Z,11.20
2019-04-26T19:14:15.769Z,11.10
2019-04-26T19:17:11.960Z,11.20
2019-04-26T19:20:01.984Z,11.10
2019-04-26T19:22:34.518Z,11.10
2019-04-26T19:25:05.033Z,11.10
2019-04-26T19:27:47.120Z,11.00
2019-04-26T19:30:10.603Z,11.00
2019-04-26T19:32:41.155Z,10.90
2019-04-26T19:35:14.303Z,10.90
2019-04-26T19:37:43.640Z,10.90
2019-04-26T19:40:14.645Z,10.90
2019-04-26T19:42:45.119Z,10.80
2019-04-26T19:45:47.013Z,10.80
2019-04-26T19:48:23.625Z,10.80
2019-04-26T19:51:03.293Z,10.80
2019-04-26T19:53:51.748Z,10.80
2019-04-26T19:56:28.621Z,10.70
2019-04-26T19:58:59.058Z,10.70
2019-04-26T20:01:29.676Z,10.70
2019-04-26T20:04:00.309Z,10.70
2019-04-26T20:06:32.255Z,10.60
2019-04-26T20:09:02.907Z,10.60
2019-04-26T20:11:36.198Z,10.60
2019-04-26T20:14:06.790Z,10.60
2019-04-26T20:16:40.776Z,10.60
2019-04-26T20:19:14.930Z,10.50
2019-04-26T20:21:45.515Z,10.50
2019-04-26T20:24:18.401Z,10.40
2019-04-26T20:26:48.650Z,10.40
2019-04-26T20:29:19.336Z,10.40
2019-04-26T20:32:21.131Z,10.40
2019-04-26T20:35:07.182Z,10.40
2019-04-26T20:37:37.715Z,10.40
2019-04-26T20:40:17.965Z,10.40
2019-04-26T20:42:42.244Z,10.40
2019-04-26T20:45:16.624Z,10.40
2019-04-26T20:47:46.670Z,10.40
2019-04-26T20:50:17.834Z,10.40
2019-04-26T20:52:48.258Z,10.40
2019-04-26T20:55:22.705Z,10.40
2019-04-26T20:57:51.969Z,10.40
2019-04-26T21:00:24.557Z,10.50
2019-04-26T21:03:01.496Z,10.50
2019-04-26T21:05:27.150Z,10.50
2019-04-26T21:07:57.579Z,10.50
2019-04-26T21:10:28.234Z,10.50
2019-04-26T21:12:58.796Z,10.50
2019-04-26T21:15:29.435Z,10.50
2019-04-26T21:18:02.668Z,10.50
2019-04-26T21:20:36.091Z,10.50
2019-04-26T21:23:04.142Z,10.50
2019-04-26T21:26:16.195Z,10.50
2019-04-26T21:29:03.314Z,10.60
2019-04-26T21:31:59.423Z,10.60
2019-04-26T21:34:34.695Z,10.60
2019-04-26T21:37:27.582Z,10.60
2019-04-26T21:40:03.950Z,10.70
2019-04-26T21:42:34.476Z,10.70
2019-04-26T21:45:06.951Z,10.70
2019-04-26T21:47:37.560Z,10.70
2019-04-26T21:50:08.416Z,10.80
2019-04-26T21:52:38.845Z,10.80
2019-04-26T21:55:09.578Z,10.90
2019-04-26T21:57:40.011Z,10.90
2019-04-26T22:00:34.466Z,10.90
2019-04-26T22:03:07.928Z,11.00
2019-04-26T22:05:37.195Z,11.00
2019-04-26T22:08:07.724Z,11.00
2019-04-26T22:10:43.720Z,11.00
2019-04-26T22:13:23.051Z,11.00
2019-04-26T22:16:09.469Z,11.10
2019-04-26T22:18:56.563Z,11.10
2019-04-26T22:21:32.083Z,11.10
2019-04-26T22:24:09.577Z,11.10
2019-04-26T22:26:44.365Z,11.00
2019-04-26T22:29:16.557Z,10.90
2019-04-26T22:31:44.439Z,10.80
2019-04-26T22:34:15.994Z,10.80
2019-04-26T22:36:46.440Z,10.80
2019-04-26T22:39:20.218Z,10.70
2019-04-26T22:41:50.658Z,10.70
2019-04-26T22:44:34.386Z,10.70
2019-04-26T22:47:33.942Z,10.70
2019-04-26T22:50:04.026Z,10.70
2019-04-26T22:52:34.449Z,10.60
2019-04-26T22:55:06.050Z,10.60
2019-04-26T22:57:36.532Z,10.60
2019-04-26T23:00:08.905Z,10.70
2019-04-26T23:02:39.333Z,10.60
2019-04-26T23:05:09.761Z,10.60
2019-04-26T23:07:40.391Z,10.60
2019-04-26T23:10:13.034Z,10.60
2019-04-26T23:13:13.246Z,10.60
2019-04-26T23:16:14.956Z,10.60
2019-04-26T23:19:03.739Z,10.50
2019-04-26T23:21:37.724Z,10.50
2019-04-26T23:24:11.528Z,10.50
2019-04-26T23:26:41.633Z,10.60
2019-04-26T23:29:17.536Z,10.60
2019-04-26T23:31:44.729Z,10.50
2019-04-26T23:34:15.192Z,10.50
2019-04-26T23:36:49.144Z,10.40
2019-04-26T23:39:17.871Z,10.30
2019-04-26T23:46:47.362Z,10.20
2019-04-26T23:49:19.282Z,9.90
2019-04-26T23:51:50.011Z,9.80
2019-04-26T23:54:20.436Z,9.70
2019-04-26T23:56:55.724Z,9.60
2019-04-26T23:59:24.776Z,9.60
